SLJE/SJS METAR and TAF weather

Enter ICAO airport designator
Station Type Date Time Source
SLJE METAR 2022/05/24 21:00 UTC NOAA

SLJE 242100Z 35008KT 9999 SCT020 32/20 Q1012


Station Type Date Time Source
SLJE Decoded METAR 2022/05/24 21:00 UTC NOAA

San Jose De Chiquitos, Bolivia (SLJE) 17-48S 060-44W
May 24, 2022 - 05:00 PM EDT / 2022.05.24 2100 UTC
Wind: from the N (350 degrees) at 9 MPH (8 KT):0
Visibility: greater than 7 mile(s):0
Sky conditions: partly cloudy
Temperature: 89 F (32 C)
Dew Point: 68 F (20 C)
Relative Humidity: 49%
Pressure (altimeter): 29.88 in. Hg (1012 hPa)
ob: SLJE 242100Z 35008KT 9999 SCT020 32/20 Q1012
cycle: 21

Station Type Date Time Source
SLJE TAF 2009/01/07 11:00 UTC NOAA

METAR SLJE 071100Z 00000KT 9999 SKC 21/18 Q1014

Example: see airport list